createdAt,value
2018-02-07T00:00:23.257Z,0.70
2018-02-07T00:02:50.774Z,0.80
2018-02-07T00:05:18.310Z,0.90
2018-02-07T00:07:45.789Z,1.00
2018-02-07T00:10:13.298Z,1.10
2018-02-07T00:12:40.824Z,1.10
2018-02-07T00:15:09.088Z,1.00
2018-02-07T00:17:36.601Z,1.00
2018-02-07T00:20:04.124Z,1.10
2018-02-07T00:22:31.641Z,1.10
2018-02-07T00:24:59.910Z,1.10
2018-02-07T00:27:27.452Z,1.10
2018-02-07T00:29:54.949Z,1.10
2018-02-07T00:32:22.451Z,1.00
2018-02-07T00:34:49.941Z,0.90
2018-02-07T00:37:17.461Z,0.90
2018-02-07T00:39:45.737Z,0.80
2018-02-07T00:42:13.254Z,0.70
2018-02-07T00:44:40.762Z,0.60
2018-02-07T00:47:08.268Z,0.50
2018-02-07T00:49:35.764Z,0.60
2018-02-07T00:52:04.043Z,0.60
2018-02-07T00:54:31.550Z,0.50
2018-02-07T00:56:59.059Z,0.50
2018-02-07T00:59:27.346Z,0.50
2018-02-07T01:01:54.895Z,0.40
2018-02-07T01:06:57.951Z,0.50
2018-02-07T01:09:25.473Z,0.50
2018-02-07T01:11:53.005Z,0.30
2018-02-07T01:14:20.526Z,0.30
2018-02-07T01:16:48.033Z,0.30
2018-02-07T01:19:16.303Z,0.20
2018-02-07T01:21:44.569Z,0.20
2018-02-07T01:24:12.090Z,0.20
2018-02-07T01:26:39.596Z,0.20
2018-02-07T01:29:07.870Z,0.10
2018-02-07T01:31:36.169Z,0.10
2018-02-07T01:34:04.441Z,0.10
2018-02-07T01:36:31.966Z,0.10
2018-02-07T01:38:59.526Z,0.20
2018-02-07T01:41:27.073Z,0.20
2018-02-07T01:43:54.600Z,0.10
2018-02-07T01:46:22.112Z,-0.10
2018-02-07T01:51:23.691Z,-0.20
2018-02-07T01:53:51.994Z,-0.20
2018-02-07T01:56:19.493Z,-0.30
2018-02-07T01:58:47.051Z,-0.20
2018-02-07T02:01:14.568Z,-0.10
2018-02-07T02:03:42.091Z,-0.10
2018-02-07T02:06:10.379Z,-0.10
2018-02-07T02:08:38.667Z,-0.10
2018-02-07T02:11:06.933Z,0.00
2018-02-07T02:13:35.254Z,0.00
2018-02-07T02:16:02.756Z,0.00
2018-02-07T02:18:30.268Z,0.10
2018-02-07T02:20:57.770Z,0.20
2018-02-07T02:23:25.319Z,0.20
2018-02-07T02:25:52.845Z,0.30
2018-02-07T02:28:20.349Z,0.30
2018-02-07T02:30:47.858Z,0.30
2018-02-07T02:33:15.365Z,0.40
2018-02-07T02:35:48.820Z,0.40
2018-02-07T02:38:16.330Z,0.50
2018-02-07T02:40:43.834Z,0.50
2018-02-07T02:43:11.381Z,0.60
2018-02-07T02:45:38.896Z,0.60
2018-02-07T02:48:06.401Z,0.70
2018-02-07T02:50:33.919Z,0.80
2018-02-07T02:53:01.430Z,0.70
2018-02-07T02:55:28.929Z,0.80
2018-02-07T02:57:56.429Z,0.80
2018-02-07T03:00:23.942Z,0.70
2018-02-07T03:02:51.446Z,0.80
2018-02-07T03:05:18.953Z,0.80
2018-02-07T03:07:46.469Z,0.80
2018-02-07T03:10:13.989Z,0.70
2018-02-07T03:12:42.266Z,0.60
2018-02-07T03:15:09.786Z,0.60
2018-02-07T03:17:37.326Z,0.80
2018-02-07T03:20:04.839Z,0.80
2018-02-07T03:22:33.113Z,1.00
2018-02-07T03:25:00.644Z,0.90
2018-02-07T03:27:28.910Z,0.90
2018-02-07T03:29:56.461Z,0.90
2018-02-07T03:32:23.977Z,0.90
2018-02-07T03:34:51.498Z,0.90
2018-02-07T03:37:19.043Z,0.80
2018-02-07T03:39:46.588Z,0.70
2018-02-07T03:42:14.136Z,0.70
2018-02-07T03:44:42.424Z,0.80
2018-02-07T03:47:10.003Z,0.80
2018-02-07T03:49:37.511Z,0.90
2018-02-07T03:52:05.825Z,0.90
2018-02-07T03:54:33.367Z,0.90
2018-02-07T03:57:00.942Z,0.90
2018-02-07T03:59:28.480Z,0.90
2018-02-07T04:01:56.780Z,0.90
2018-02-07T04:04:24.294Z,0.90
2018-02-07T04:06:52.629Z,1.00
2018-02-07T04:09:20.163Z,1.00
2018-02-07T04:11:47.721Z,1.10
2018-02-07T04:14:15.275Z,1.20
2018-02-07T04:16:43.557Z,1.20
2018-02-07T04:19:11.072Z,1.20
2018-02-07T04:21:38.577Z,1.20
2018-02-07T04:24:06.078Z,1.20
2018-02-07T04:26:33.601Z,1.20
2018-02-07T04:29:01.089Z,1.20
2018-02-07T04:31:28.588Z,1.20
2018-02-07T04:33:56.872Z,1.20
2018-02-07T04:36:24.414Z,1.10
2018-02-07T04:38:51.914Z,1.10
2018-02-07T04:41:19.448Z,1.10
2018-02-07T04:43:47.738Z,1.20
2018-02-07T04:46:16.006Z,1.20
2018-02-07T04:48:43.533Z,1.20
2018-02-07T04:51:11.065Z,1.20
2018-02-07T04:53:38.600Z,1.20
2018-02-07T04:56:06.166Z,1.20
2018-02-07T04:58:33.689Z,1.20
2018-02-07T05:01:01.994Z,1.20
2018-02-07T05:03:29.513Z,1.10
2018-02-07T05:05:57.041Z,1.20
2018-02-07T05:08:24.566Z,1.20
2018-02-07T05:10:52.080Z,1.20
2018-02-07T05:13:19.619Z,1.10
2018-02-07T05:15:47.138Z,1.20
2018-02-07T05:18:14.667Z,1.20
2018-02-07T05:20:42.200Z,1.20
2018-02-07T05:23:09.717Z,1.10
2018-02-07T05:25:37.222Z,1.10
2018-02-07T05:28:04.751Z,1.10
2018-02-07T05:30:32.314Z,1.10
2018-02-07T05:32:59.844Z,1.20
2018-02-07T05:35:28.118Z,1.30
2018-02-07T05:37:56.385Z,1.20
2018-02-07T05:40:24.649Z,1.10
2018-02-07T05:42:52.185Z,1.10
2018-02-07T05:45:19.701Z,1.30
2018-02-07T05:47:47.293Z,1.20
2018-02-07T05:50:14.938Z,1.30
2018-02-07T05:52:42.473Z,1.30
2018-02-07T05:55:10.800Z,1.30
2018-02-07T05:57:38.322Z,1.30
2018-02-07T06:00:05.830Z,1.30
2018-02-07T06:02:33.348Z,1.20
2018-02-07T06:05:00.871Z,1.30
2018-02-07T06:07:28.419Z,1.30
2018-02-07T06:09:55.929Z,1.20
2018-02-07T06:12:23.419Z,1.10
2018-02-07T06:14:51.713Z,1.10
2018-02-07T06:17:19.234Z,1.10
2018-02-07T06:19:46.749Z,1.10
2018-02-07T06:22:15.022Z,1.10
2018-02-07T06:24:43.330Z,1.10
2018-02-07T06:27:10.869Z,1.10
2018-02-07T06:29:39.168Z,1.20
2018-02-07T06:32:06.679Z,1.10
2018-02-07T06:34:35.025Z,1.20
2018-02-07T06:37:02.558Z,1.20
2018-02-07T06:39:30.090Z,1.20
2018-02-07T06:41:58.360Z,1.10
2018-02-07T06:44:26.681Z,1.10
2018-02-07T06:46:54.293Z,1.10
2018-02-07T06:49:22.582Z,1.20
2018-02-07T06:51:50.855Z,1.20
2018-02-07T06:54:19.133Z,1.20
2018-02-07T06:56:47.452Z,1.20
2018-02-07T06:59:14.979Z,1.10
2018-02-07T07:01:43.281Z,1.10
2018-02-07T07:04:10.797Z,1.10
2018-02-07T07:06:38.317Z,1.10
2018-02-07T07:09:05.826Z,1.20
2018-02-07T07:11:34.156Z,1.30
2018-02-07T07:14:01.677Z,1.30
2018-02-07T07:16:29.983Z,1.30
2018-02-07T07:18:57.461Z,1.30
2018-02-07T07:21:24.968Z,1.20
2018-02-07T07:23:53.221Z,1.10
2018-02-07T07:26:21.555Z,1.10
2018-02-07T07:28:49.057Z,1.10
2018-02-07T07:31:17.372Z,1.10
2018-02-07T07:33:44.873Z,1.10
2018-02-07T07:36:12.405Z,1.10
2018-02-07T07:38:39.917Z,1.20
2018-02-07T07:41:08.189Z,1.20
2018-02-07T07:43:36.460Z,1.20
2018-02-07T07:46:03.981Z,1.20
2018-02-07T07:48:31.498Z,1.20
2018-02-07T07:50:59.781Z,1.20
2018-02-07T07:53:28.039Z,1.20
2018-02-07T07:55:55.512Z,1.20
2018-02-07T07:58:23.936Z,1.10
2018-02-07T08:00:51.458Z,1.00
2018-02-07T08:03:19.005Z,1.00
2018-02-07T08:05:47.326Z,1.10
2018-02-07T08:08:14.856Z,1.00
2018-02-07T08:10:42.393Z,1.00
2018-02-07T08:13:10.696Z,0.90
2018-02-07T08:15:38.241Z,0.90
2018-02-07T08:18:05.791Z,0.90
2018-02-07T08:20:34.085Z,1.00
2018-02-07T08:23:01.630Z,1.00
2018-02-07T08:25:29.261Z,1.10
2018-02-07T08:27:56.879Z,1.10
2018-02-07T08:30:24.418Z,1.10
2018-02-07T08:32:52.879Z,1.00
2018-02-07T08:35:20.454Z,1.00
2018-02-07T08:37:48.770Z,1.00
2018-02-07T08:40:16.429Z,1.00
2018-02-07T08:42:44.094Z,0.90
2018-02-07T08:45:11.605Z,1.00
2018-02-07T08:47:39.985Z,1.00
2018-02-07T08:50:08.250Z,1.10
2018-02-07T08:52:35.895Z,1.10
2018-02-07T08:55:03.440Z,1.10
2018-02-07T08:57:31.734Z,1.10
2018-02-07T08:59:59.299Z,1.10
2018-02-07T09:02:26.817Z,1.10
2018-02-07T09:04:54.352Z,1.10
2018-02-07T09:07:22.645Z,1.20
2018-02-07T09:09:50.173Z,1.20
2018-02-07T09:12:18.544Z,1.30
2018-02-07T09:14:46.214Z,1.30
2018-02-07T09:17:14.552Z,1.20
2018-02-07T09:19:42.069Z,1.20
2018-02-07T09:22:09.611Z,1.10
2018-02-07T09:24:37.914Z,1.10
2018-02-07T09:27:05.461Z,1.10
2018-02-07T09:29:33.782Z,1.10
2018-02-07T09:32:01.330Z,1.10
2018-02-07T09:34:28.871Z,1.10
2018-02-07T09:36:56.406Z,1.20
2018-02-07T09:39:24.728Z,1.20
2018-02-07T09:41:52.286Z,1.20
2018-02-07T09:44:19.814Z,1.20
2018-02-07T09:46:47.355Z,1.30
2018-02-07T09:49:15.682Z,1.30
2018-02-07T09:51:43.229Z,1.30
2018-02-07T09:54:10.812Z,1.40
2018-02-07T09:56:38.321Z,1.50
2018-02-07T09:59:06.622Z,1.40
2018-02-07T10:01:34.236Z,1.40
2018-02-07T10:04:01.750Z,1.40
2018-02-07T10:06:29.312Z,1.40
2018-02-07T10:08:56.837Z,1.40
2018-02-07T10:11:25.219Z,1.30
2018-02-07T10:13:52.951Z,1.30
2018-02-07T10:16:20.486Z,1.30
2018-02-07T10:18:48.104Z,1.40
2018-02-07T10:21:15.828Z,1.50
2018-02-07T10:23:43.519Z,1.50
2018-02-07T10:26:11.970Z,1.50
2018-02-07T10:28:39.649Z,1.50
2018-02-07T10:31:07.336Z,1.50
2018-02-07T10:33:34.905Z,1.50
2018-02-07T10:36:02.474Z,1.60
2018-02-07T10:38:30.081Z,1.70
2018-02-07T10:40:57.639Z,1.80
2018-02-07T10:43:25.190Z,1.80
2018-02-07T10:45:52.738Z,1.80
2018-02-07T10:48:20.260Z,1.80
2018-02-07T10:50:47.973Z,1.80
2018-02-07T10:53:15.513Z,1.80
2018-02-07T10:55:43.051Z,1.80
2018-02-07T10:58:10.710Z,1.80
2018-02-07T11:00:38.272Z,1.80
2018-02-07T11:03:05.821Z,1.80
2018-02-07T11:05:34.126Z,2.00
2018-02-07T11:08:01.657Z,1.90
2018-02-07T11:10:29.214Z,1.90
2018-02-07T11:12:57.486Z,2.00
2018-02-07T11:15:25.814Z,2.00
2018-02-07T11:17:53.338Z,2.00
2018-02-07T11:20:20.963Z,2.00
2018-02-07T11:22:48.624Z,2.00
2018-02-07T11:25:16.154Z,1.90
2018-02-07T11:27:43.706Z,1.90
2018-02-07T11:30:11.262Z,2.00
2018-02-07T11:32:38.835Z,2.00
2018-02-07T11:35:06.389Z,2.00
2018-02-07T11:37:33.934Z,1.90
2018-02-07T11:40:01.497Z,1.90
2018-02-07T11:42:29.098Z,1.90
2018-02-07T11:44:56.748Z,1.90
2018-02-07T11:47:24.287Z,2.00
2018-02-07T11:49:51.813Z,2.00
2018-02-07T11:52:19.324Z,2.00
2018-02-07T11:54:46.881Z,2.00
2018-02-07T11:57:14.422Z,1.90
2018-02-07T11:59:41.993Z,2.00
2018-02-07T12:02:09.533Z,2.00
2018-02-07T12:04:37.072Z,2.10
2018-02-07T12:07:04.608Z,2.10
2018-02-07T12:09:32.941Z,2.10
2018-02-07T12:12:00.548Z,2.10
2018-02-07T12:14:28.115Z,2.10
2018-02-07T12:16:56.597Z,2.20
2018-02-07T12:19:24.947Z,2.10
2018-02-07T12:21:52.641Z,2.10
2018-02-07T12:24:20.334Z,2.20
2018-02-07T12:26:47.998Z,2.30
2018-02-07T12:29:15.653Z,2.30
2018-02-07T12:31:43.333Z,2.30
2018-02-07T12:34:11.576Z,2.40
2018-02-07T12:36:39.234Z,2.40
2018-02-07T12:39:07.589Z,2.40
2018-02-07T12:41:35.140Z,2.40
2018-02-07T12:44:02.683Z,2.40
2018-02-07T12:46:30.253Z,2.40
2018-02-07T12:48:57.781Z,2.40
2018-02-07T12:51:25.332Z,2.50
2018-02-07T12:53:52.890Z,2.50
2018-02-07T12:56:20.581Z,2.40
2018-02-07T12:58:48.241Z,2.40
2018-02-07T13:01:15.806Z,2.30
2018-02-07T13:03:43.367Z,2.30
2018-02-07T13:06:11.026Z,2.30
2018-02-07T13:08:38.568Z,2.30
2018-02-07T13:11:06.175Z,2.40
2018-02-07T13:13:33.744Z,2.40
2018-02-07T13:16:02.061Z,2.50
2018-02-07T13:18:29.596Z,2.50
2018-02-07T13:20:57.141Z,2.50
2018-02-07T13:23:25.446Z,2.50
2018-02-07T13:25:53.003Z,2.50
2018-02-07T13:28:20.548Z,2.60
2018-02-07T13:30:48.117Z,2.60
2018-02-07T13:33:15.644Z,2.70
2018-02-07T13:35:43.977Z,2.60
2018-02-07T13:38:11.534Z,2.60
2018-02-07T13:40:39.109Z,2.60
2018-02-07T13:43:07.398Z,2.50
2018-02-07T13:45:35.059Z,2.50
2018-02-07T13:48:02.711Z,2.50
2018-02-07T13:50:30.439Z,2.50
2018-02-07T13:52:58.002Z,2.50
2018-02-07T13:55:25.582Z,2.50
2018-02-07T13:57:53.113Z,2.60
2018-02-07T14:00:20.638Z,2.70
2018-02-07T14:02:48.319Z,2.70
2018-02-07T14:05:16.625Z,2.60
2018-02-07T14:07:44.243Z,2.60
2018-02-07T14:10:12.683Z,2.70
2018-02-07T14:12:40.242Z,2.70
2018-02-07T14:15:07.866Z,2.70
2018-02-07T14:17:35.432Z,2.70
2018-02-07T14:20:02.920Z,2.80
2018-02-07T14:22:31.712Z,2.80
2018-02-07T14:24:59.332Z,2.80
2018-02-07T14:27:26.966Z,2.70
2018-02-07T14:29:54.551Z,2.80
2018-02-07T14:32:22.849Z,2.70
2018-02-07T14:34:50.405Z,2.70
2018-02-07T14:37:17.949Z,2.60
2018-02-07T14:39:45.540Z,2.50
2018-02-07T14:42:16.230Z,2.50
2018-02-07T14:44:43.874Z,2.40
2018-02-07T14:47:13.329Z,2.40
2018-02-07T14:49:40.920Z,2.40
2018-02-07T14:52:08.485Z,2.40
2018-02-07T14:54:36.074Z,2.40
2018-02-07T14:57:04.382Z,2.40
2018-02-07T14:59:32.056Z,2.40
2018-02-07T15:02:00.454Z,2.40
2018-02-07T15:04:29.042Z,2.40
2018-02-07T15:06:56.562Z,2.40
2018-02-07T15:09:24.107Z,2.40
2018-02-07T15:11:51.666Z,2.30
2018-02-07T15:14:19.984Z,2.30
2018-02-07T15:16:49.305Z,2.20
2018-02-07T15:19:16.867Z,2.10
2018-02-07T15:21:44.405Z,2.10
2018-02-07T15:24:11.964Z,2.10
2018-02-07T15:26:39.551Z,2.10
2018-02-07T15:29:07.099Z,2.00
2018-02-07T15:31:34.663Z,2.00
2018-02-07T15:34:02.212Z,2.00
2018-02-07T15:36:29.830Z,2.00
2018-02-07T15:38:58.164Z,2.00
2018-02-07T15:41:25.765Z,2.00
2018-02-07T15:43:53.315Z,2.10
2018-02-07T15:46:21.604Z,2.00
2018-02-07T15:48:49.160Z,2.00
2018-02-07T15:51:16.701Z,2.10
2018-02-07T15:53:45.023Z,1.90
2018-02-07T15:56:13.346Z,1.90
2018-02-07T15:58:40.862Z,1.80
2018-02-07T16:01:08.421Z,1.90
2018-02-07T16:03:37.809Z,1.80
2018-02-07T16:06:05.378Z,1.80
2018-02-07T16:08:33.682Z,1.80
2018-02-07T16:11:07.860Z,1.70
2018-02-07T16:13:35.404Z,1.70
2018-02-07T16:16:03.726Z,1.70
2018-02-07T16:18:31.256Z,1.70
2018-02-07T16:20:58.802Z,1.60
2018-02-07T16:23:27.065Z,1.60
2018-02-07T16:25:54.638Z,1.60
2018-02-07T16:28:22.934Z,1.80
2018-02-07T16:30:50.498Z,1.80
2018-02-07T16:33:18.032Z,1.70
2018-02-07T16:35:45.570Z,1.70
2018-02-07T16:38:13.086Z,1.80
2018-02-07T16:40:40.568Z,1.70
2018-02-07T16:43:10.658Z,1.70
2018-02-07T16:45:38.209Z,1.70
2018-02-07T16:48:07.704Z,1.70
2018-02-07T16:50:36.032Z,1.60
2018-02-07T16:53:05.046Z,1.60
2018-02-07T16:55:32.614Z,1.60
2018-02-07T16:58:00.151Z,1.60
2018-02-07T17:00:27.681Z,1.50
2018-02-07T17:02:56.078Z,1.60
2018-02-07T17:05:23.621Z,1.60
2018-02-07T17:07:51.204Z,1.60
2018-02-07T17:10:18.762Z,1.50
2018-02-07T17:12:46.521Z,1.50
2018-02-07T17:15:23.391Z,1.60
2018-02-07T17:17:50.899Z,1.60
2018-02-07T17:20:18.409Z,1.60
2018-02-07T17:22:45.975Z,1.60
2018-02-07T17:25:13.508Z,1.60
2018-02-07T17:27:41.024Z,1.60
2018-02-07T17:30:08.546Z,1.70
2018-02-07T17:32:36.076Z,1.70
2018-02-07T17:35:03.567Z,1.70
2018-02-07T17:37:31.081Z,1.70
2018-02-07T17:39:59.374Z,1.70
2018-02-07T17:42:26.897Z,1.60
2018-02-07T17:44:54.453Z,1.60
2018-02-07T17:47:21.993Z,1.60
2018-02-07T17:49:49.537Z,1.60
2018-02-07T17:52:17.080Z,1.60
2018-02-07T17:54:44.663Z,1.70
2018-02-07T17:57:12.214Z,1.70
2018-02-07T17:59:39.755Z,1.70
2018-02-07T18:02:07.309Z,1.70
2018-02-07T18:04:34.843Z,1.80
2018-02-07T18:07:02.403Z,1.60
2018-02-07T18:09:29.966Z,1.60
2018-02-07T18:11:58.270Z,1.60
2018-02-07T18:14:25.814Z,1.60
2018-02-07T18:16:53.384Z,1.60
2018-02-07T18:19:20.946Z,1.60
2018-02-07T18:21:48.469Z,1.60
2018-02-07T18:24:16.030Z,1.60
2018-02-07T18:26:43.625Z,1.60
2018-02-07T18:29:11.163Z,1.60
2018-02-07T18:31:39.505Z,1.50
2018-02-07T18:34:07.028Z,1.50
2018-02-07T18:36:34.585Z,1.60
2018-02-07T18:39:02.122Z,1.60
2018-02-07T18:41:30.465Z,1.60
2018-02-07T18:43:58.086Z,1.60
2018-02-07T18:46:25.587Z,1.60
2018-02-07T18:48:53.133Z,1.60
2018-02-07T18:51:20.674Z,1.50
2018-02-07T18:53:48.218Z,1.60
2018-02-07T18:56:15.753Z,1.60
2018-02-07T18:58:44.048Z,1.60
2018-02-07T19:01:12.450Z,1.60
2018-02-07T19:03:40.003Z,1.60
2018-02-07T19:06:07.531Z,1.50
2018-02-07T19:08:35.838Z,1.40
2018-02-07T19:11:03.365Z,1.40
2018-02-07T19:13:31.683Z,1.50
2018-02-07T19:15:59.237Z,1.50
2018-02-07T19:18:26.796Z,1.50
2018-02-07T19:20:54.366Z,1.40
2018-02-07T19:23:21.978Z,1.40
2018-02-07T19:25:49.547Z,1.40
2018-02-07T19:28:17.886Z,1.40
2018-02-07T19:30:45.431Z,1.40
2018-02-07T19:33:13.662Z,1.40
2018-02-07T19:35:46.501Z,1.30
2018-02-07T19:38:14.081Z,1.30
2018-02-07T19:40:46.531Z,1.40
2018-02-07T19:43:14.095Z,1.30
2018-02-07T19:45:41.753Z,1.30
2018-02-07T19:48:09.294Z,1.20
2018-02-07T19:50:36.843Z,1.20
2018-02-07T19:53:04.389Z,1.20
2018-02-07T19:55:32.017Z,1.10
2018-02-07T19:57:59.572Z,1.00
2018-02-07T20:00:29.251Z,1.10
2018-02-07T20:07:56.778Z,1.20
2018-02-07T20:27:53.517Z,1.10
2018-02-07T20:30:21.060Z,1.10
2018-02-07T20:32:48.616Z,1.10
2018-02-07T20:35:17.151Z,1.20
2018-02-07T20:37:45.594Z,1.20
2018-02-07T20:40:26.383Z,1.20
2018-02-07T20:42:53.933Z,1.20
2018-02-07T20:45:21.511Z,1.30
2018-02-07T20:47:49.064Z,1.30
2018-02-07T20:50:16.580Z,1.30
2018-02-07T20:52:44.142Z,1.40
2018-02-07T20:55:11.731Z,1.40
2018-02-07T20:57:39.308Z,1.30
2018-02-07T21:00:06.863Z,1.20
2018-02-07T21:02:34.436Z,1.20
2018-02-07T21:05:01.953Z,1.10
2018-02-07T21:07:29.516Z,1.10
2018-02-07T21:09:57.097Z,1.10
2018-02-07T21:12:24.667Z,1.10
2018-02-07T21:14:52.236Z,1.20
2018-02-07T21:17:19.793Z,1.30
2018-02-07T21:19:47.330Z,1.30
2018-02-07T21:22:14.873Z,1.30
2018-02-07T21:24:42.458Z,1.30
2018-02-07T21:29:43.878Z,1.40
2018-02-07T21:32:11.637Z,1.40
2018-02-07T21:34:41.429Z,1.40
2018-02-07T21:37:17.406Z,1.40
2018-02-07T21:39:51.741Z,1.30
2018-02-07T21:42:19.398Z,1.30
2018-02-07T21:44:47.422Z,1.30
2018-02-07T21:47:19.244Z,1.30
2018-02-07T21:49:46.897Z,1.40
2018-02-07T21:52:14.981Z,1.30
2018-02-07T21:54:43.352Z,1.40
2018-02-07T21:57:21.332Z,1.40
2018-02-07T21:59:49.690Z,1.40
2018-02-07T22:02:18.140Z,1.30
2018-02-07T22:04:46.585Z,1.30
2018-02-07T22:07:14.275Z,1.30
2018-02-07T22:09:41.804Z,1.30
2018-02-07T22:12:11.287Z,1.30
2018-02-07T22:14:39.688Z,1.30
2018-02-07T22:17:07.454Z,1.30
2018-02-07T22:19:35.155Z,1.30
2018-02-07T22:22:03.114Z,1.40
2018-02-07T22:24:30.760Z,1.40
2018-02-07T22:26:58.369Z,1.30
2018-02-07T22:29:29.943Z,1.30
2018-02-07T22:31:59.666Z,1.30
2018-02-07T22:34:27.381Z,1.30
2018-02-07T22:36:54.947Z,1.30
2018-02-07T22:39:22.593Z,1.20
2018-02-07T22:41:50.189Z,1.10
2018-02-07T22:44:29.247Z,1.10
2018-02-07T22:46:56.892Z,1.00
2018-02-07T22:49:24.530Z,1.10
2018-02-07T22:51:53.101Z,1.00
2018-02-07T22:54:21.074Z,1.00
2018-02-07T22:57:10.751Z,1.00
2018-02-07T22:59:40.018Z,0.90
2018-02-07T23:02:07.714Z,1.00
2018-02-07T23:04:35.328Z,1.00
2018-02-07T23:07:18.123Z,1.00
2018-02-07T23:09:50.769Z,0.90
2018-02-07T23:12:18.831Z,0.90
2018-02-07T23:14:46.584Z,1.00
2018-02-07T23:17:14.257Z,1.00
2018-02-07T23:19:41.960Z,1.10
2018-02-07T23:22:11.648Z,1.00
2018-02-07T23:24:39.913Z,1.00
2018-02-07T23:27:07.609Z,1.00
2018-02-07T23:29:39.810Z,0.80
2018-02-07T23:32:07.530Z,0.80
2018-02-07T23:34:35.884Z,0.80
2018-02-07T23:37:03.585Z,0.80
2018-02-07T23:39:43.846Z,0.70
2018-02-07T23:42:15.272Z,0.70
2018-02-07T23:44:42.826Z,0.70
2018-02-07T23:47:10.337Z,0.80
2018-02-07T23:49:37.874Z,0.80
2018-02-07T23:52:05.466Z,0.90
2018-02-07T23:54:32.980Z,0.90
2018-02-07T23:57:00.543Z,0.80
2018-02-07T23:59:28.848Z,1.00
